Time;durP1;ratioP1;P1;durP2;ratioP2;P2;SDS_P1;SDS_P2;PMS_P1;PMS_P2;Temp;Humidity;BMP_temperature;BMP_pressure;BME280_temperature;BME280_humidity;BME280_pressure;Samples;Min_cycle;Max_cycle;Signal;HPM_P1;HPM_P2
2021/08/31 00:01:16;;;;;;;;;;;;;;;18.59;100.00;96400.06;5046204;28;20450;-61
2021/08/31 00:03:44;;;;;;;;;;;;;;;18.29;100.00;96406.63;5041146;28;19971;-62
2021/08/31 00:06:12;;;;;;;;;;;;;;;18.81;100.00;96408.00;5047622;28;19956;-62
2021/08/31 00:08:42;;;;;;;;;;;;;;;18.61;100.00;96403.34;5044597;28;19971;-61
2021/08/31 00:11:10;;;;;;;;;;;;;;;18.73;100.00;96403.66;5047937;28;19960;-61
2021/08/31 00:13:38;;;;;;;;;;;;;;;18.74;100.00;96398.09;5041781;28;19979;-62
2021/08/31 00:16:06;;;;;;;;;;;;;;;18.55;100.00;96409.50;5044558;28;19971;-62
2021/08/31 00:18:34;;;;;;;;;;;;;;;18.88;100.00;96408.88;5042599;28;19998;-62
2021/08/31 00:21:02;;;;;;;;;;;;;;;18.86;100.00;96401.06;5046113;28;19960;-62
2021/08/31 00:23:30;;;;;;;;;;;;;;;18.75;100.00;96409.63;5047992;28;19960;-60
2021/08/31 00:26:00;;;;;;;;;;;;;;;18.70;100.00;96404.84;5045115;28;20379;-62
2021/08/31 00:28:28;;;;;;;;;;;;;;;18.33;100.00;96414.03;5039464;28;20433;-61
2021/08/31 00:30:56;;;;;;;;;;;;;;;18.37;100.00;96415.28;5042663;28;19968;-61
2021/08/31 00:33:24;;;;;;;;;;;;;;;18.43;100.00;96409.19;5046476;28;19952;-62
2021/08/31 00:35:52;;;;;;;;;;;;;;;18.49;100.00;96418.28;5043422;28;19965;-62
2021/08/31 00:38:20;;;;;;;;;;;;;;;18.36;100.00;96412.84;5045864;28;19987;-61
2021/08/31 00:40:48;;;;;;;;;;;;;;;18.21;100.00;96424.44;5048645;28;19972;-61
2021/08/31 00:43:18;;;;;;;;;;;;;;;18.63;100.00;96416.50;5044501;28;19968;-62
2021/08/31 00:45:48;;;;;;;;;;;;;;;18.39;100.00;96423.13;5042135;28;19968;-61
2021/08/31 00:48:17;;;;;;;;;;;;;;;18.49;100.00;96428.94;5042389;28;19963;-61
2021/08/31 00:50:45;;;;;;;;;;;;;;;18.51;100.00;96421.56;5047107;28;19971;-62
2021/08/31 00:53:13;;;;;;;;;;;;;;;18.09;100.00;96417.13;5047489;28;20001;-62
2021/08/31 00:55:42;;;;;;;;;;;;;;;18.17;100.00;96423.19;5043868;28;19983;-61
2021/08/31 00:58:10;;;;;;;;;;;;;;;17.79;100.00;96427.97;5042233;28;19956;-62
2021/08/31 01:00:39;;;;;;;;;;;;;;;17.86;100.00;96431.53;5046225;28;19991;-60
2021/08/31 01:03:08;;;;;;;;;;;;;;;18.20;100.00;96433.47;5044132;28;19959;-61
2021/08/31 01:05:36;;;;;;;;;;;;;;;18.52;100.00;96433.91;5045859;28;19979;-62
2021/08/31 01:08:04;;;;;;;;;;;;;;;18.40;100.00;96436.28;5041539;28;20381;-62
2021/08/31 01:10:32;;;;;;;;;;;;;;;18.35;100.00;96437.91;5044993;28;19956;-62
2021/08/31 01:13:00;;;;;;;;;;;;;;;18.58;100.00;96445.63;5045179;28;19978;-61
2021/08/31 01:15:30;;;;;;;;;;;;;;;18.78;100.00;96443.13;5043611;28;19972;-62
2021/08/31 01:18:09;;;;;;;;;;;;;;;18.73;100.00;96443.72;5045858;28;19975;-61
2021/08/31 01:20:38;;;;;;;;;;;;;;;18.42;100.00;96444.94;5046967;28;19979;-61
2021/08/31 01:23:06;;;;;;;;;;;;;;;18.39;100.00;96441.81;5043679;28;20292;-62
2021/08/31 01:25:35;;;;;;;;;;;;;;;18.44;100.00;96445.56;5043264;28;19951;-61
2021/08/31 01:28:03;;;;;;;;;;;;;;;18.27;100.00;96455.69;5041686;28;19979;-62
2021/08/31 01:30:32;;;;;;;;;;;;;;;18.22;100.00;96455.44;5043411;28;19960;-60
2021/08/31 01:33:00;;;;;;;;;;;;;;;18.08;100.00;96451.00;5043258;28;19967;-62
2021/08/31 01:35:28;;;;;;;;;;;;;;;18.38;100.00;96449.00;5047914;28;19968;-62
2021/08/31 01:37:56;;;;;;;;;;;;;;;18.50;100.00;96450.09;5044944;28;20410;-61
2021/08/31 01:40:25;;;;;;;;;;;;;;;18.62;100.00;96450.41;5042510;28;19983;-61
2021/08/31 01:42:55;;;;;;;;;;;;;;;18.46;100.00;96450.69;5042483;28;19972;-61
2021/08/31 01:45:23;;;;;;;;;;;;;;;18.80;100.00;96449.94;5045924;28;20024;-62
2021/08/31 01:47:51;;;;;;;;;;;;;;;18.64;100.00;96450.22;5039577;28;20414;-61
2021/08/31 01:50:19;;;;;;;;;;;;;;;18.73;100.00;96455.25;5016866;28;19972;-61
2021/08/31 01:52:47;;;;;;;;;;;;;;;18.33;100.00;96454.09;5038538;28;20008;-61
2021/08/31 01:55:15;;;;;;;;;;;;;;;18.24;100.00;96452.59;5041712;28;19960;-61
2021/08/31 01:57:44;;;;;;;;;;;;;;;18.34;100.00;96450.41;5047955;28;19967;-62
2021/08/31 02:00:13;;;;;;;;;;;;;;;18.11;100.00;96447.97;5046970;28;19992;-61
2021/08/31 02:02:42;;;;;;;;;;;;;;;18.40;100.00;96451.47;5049672;28;19955;-61
2021/08/31 02:05:11;;;;;;;;;;;;;;;18.58;100.00;96441.16;5050772;28;19979;-61
2021/08/31 02:07:39;;;;;;;;;;;;;;;18.26;100.00;96451.38;5045015;28;19968;-60
2021/08/31 02:10:07;;;;;;;;;;;;;;;18.40;100.00;96457.63;5045005;28;20354;-61
2021/08/31 02:12:35;;;;;;;;;;;;;;;18.55;100.00;96462.03;5047658;28;20419;-61
2021/08/31 02:15:03;;;;;;;;;;;;;;;18.50;100.00;96454.63;5047520;28;19929;-61
2021/08/31 02:17:33;;;;;;;;;;;;;;;18.61;100.00;96455.94;5047711;28;19952;-59
2021/08/31 02:20:01;;;;;;;;;;;;;;;18.80;100.00;96449.94;5049688;28;19976;-62
2021/08/31 02:22:29;;;;;;;;;;;;;;;18.82;100.00;96455.88;5033179;28;19956;-62
2021/08/31 02:24:57;;;;;;;;;;;;;;;19.10;100.00;96449.69;5022210;28;20347;-61
2021/08/31 02:27:25;;;;;;;;;;;;;;;19.25;100.00;96453.03;5029897;28;19956;-62
2021/08/31 02:29:53;;;;;;;;;;;;;;;18.96;100.00;96448.81;5048761;28;19979;-62
2021/08/31 02:32:21;;;;;;;;;;;;;;;18.98;100.00;96457.44;5047463;28;19968;-62
2021/08/31 02:34:51;;;;;;;;;;;;;;;18.55;100.00;96460.22;5042909;28;19960;-61
2021/08/31 02:37:19;;;;;;;;;;;;;;;18.87;100.00;96463.34;5024830;28;20558;-62
2021/08/31 02:39:47;;;;;;;;;;;;;;;19.03;100.00;96457.69;5032151;28;20425;-62
2021/08/31 02:42:15;;;;;;;;;;;;;;;18.68;100.00;96454.13;5045908;28;19960;-62
2021/08/31 02:44:43;;;;;;;;;;;;;;;18.23;100.00;96454.41;5046001;28;19956;-62
2021/08/31 02:47:11;;;;;;;;;;;;;;;18.41;100.00;96461.97;5045007;28;19960;-62
2021/08/31 02:49:39;;;;;;;;;;;;;;;17.66;100.00;96457.16;5044454;28;19960;-59
2021/08/31 02:52:09;;;;;;;;;;;;;;;17.95;100.00;96467.72;5044965;28;20507;-62
2021/08/31 02:54:37;;;;;;;;;;;;;;;18.49;100.00;96453.81;5045962;28;20488;-61
2021/08/31 02:57:05;;;;;;;;;;;;;;;18.02;100.00;96462.44;5043435;28;19961;-62
2021/08/31 02:59:33;;;;;;;;;;;;;;;17.71;100.00;96460.88;5026187;28;19976;-60
2021/08/31 03:02:07;;;;;;;;;;;;;;;18.44;100.00;96458.06;5049747;28;19964;-62
2021/08/31 03:04:37;;;;;;;;;;;;;;;18.28;100.00;96467.19;5045550;28;19967;-62
2021/08/31 03:07:06;;;;;;;;;;;;;;;17.88;100.00;96466.81;5047247;28;20314;-62
2021/08/31 03:09:35;;;;;;;;;;;;;;;18.25;100.00;96459.56;5047029;28;19968;-62
2021/08/31 03:12:04;;;;;;;;;;;;;;;18.43;100.00;96451.91;5048205;28;19963;-62
2021/08/31 03:14:32;;;;;;;;;;;;;;;17.95;100.00;96459.72;5046978;28;19952;-62
2021/08/31 03:17:00;;;;;;;;;;;;;;;18.34;100.00;96454.91;5045561;28;19963;-62
2021/08/31 03:19:28;;;;;;;;;;;;;;;17.92;100.00;96451.25;5047941;28;19952;-63
2021/08/31 03:21:57;;;;;;;;;;;;;;;17.99;100.00;96460.16;5046310;28;20385;-61
2021/08/31 03:24:25;;;;;;;;;;;;;;;18.07;100.00;96468.06;5040475;28;20360;-62
2021/08/31 03:26:55;;;;;;;;;;;;;;;17.94;100.00;96470.59;5027439;28;19972;-61
2021/08/31 03:29:23;;;;;;;;;;;;;;;18.32;100.00;96476.47;5033684;28;19957;-62
2021/08/31 03:31:51;;;;;;;;;;;;;;;17.59;100.00;96482.91;5042381;28;19959;-62
2021/08/31 03:34:19;;;;;;;;;;;;;;;18.22;100.00;96483.97;5043169;28;19959;-61
2021/08/31 03:36:47;;;;;;;;;;;;;;;18.00;100.00;96476.00;5032647;28;19968;-62
2021/08/31 03:39:15;;;;;;;;;;;;;;;17.99;100.00;96482.31;5035370;28;19943;-61
2021/08/31 03:41:43;;;;;;;;;;;;;;;17.56;100.00;96473.44;5044279;28;19972;-62
2021/08/31 03:44:12;;;;;;;;;;;;;;;18.01;100.00;96484.81;5030633;28;19975;-62
2021/08/31 03:46:41;;;;;;;;;;;;;;;17.98;100.00;96486.00;5023136;28;19948;-61
2021/08/31 03:49:09;;;;;;;;;;;;;;;18.07;100.00;96491.25;5055903;28;20398;-62
2021/08/31 03:51:37;;;;;;;;;;;;;;;17.96;100.00;96479.22;5045007;28;19961;-62
2021/08/31 03:54:05;;;;;;;;;;;;;;;18.33;100.00;96486.13;5023445;28;19964;-62
2021/08/31 03:56:33;;;;;;;;;;;;;;;18.06;100.00;96492.25;5025642;28;19968;-61
2021/08/31 03:59:02;;;;;;;;;;;;;;;18.08;100.00;96491.03;5024241;28;20371;-63
2021/08/31 04:01:31;;;;;;;;;;;;;;;17.98;100.00;96493.19;5034145;28;19991;-62
2021/08/31 04:03:59;;;;;;;;;;;;;;;18.08;100.00;96500.91;5023393;28;20413;-61
2021/08/31 04:06:27;;;;;;;;;;;;;;;18.39;100.00;96500.56;5014888;28;19948;-62
2021/08/31 04:08:56;;;;;;;;;;;;;;;18.22;100.00;96511.50;5024695;28;19969;-61
2021/08/31 04:11:24;;;;;;;;;;;;;;;18.01;100.00;96517.66;5047505;28;19951;-64
2021/08/31 04:13:52;;;;;;;;;;;;;;;18.72;100.00;96512.38;5045312;28;19975;-62
2021/08/31 04:16:20;;;;;;;;;;;;;;;18.96;100.00;96512.94;5043523;28;19964;-62
2021/08/31 04:18:49;;;;;;;;;;;;;;;18.46;100.00;96514.78;5045154;28;19978;-61
2021/08/31 04:21:17;;;;;;;;;;;;;;;18.47;100.00;96516.44;5042361;28;20421;-62
2021/08/31 04:23:45;;;;;;;;;;;;;;;18.95;100.00;96527.31;5040257;28;19955;-62
2021/08/31 04:26:13;;;;;;;;;;;;;;;18.80;100.00;96524.75;5047768;28;20425;-61
2021/08/31 04:28:41;;;;;;;;;;;;;;;18.67;100.00;96524.63;5042832;28;19967;-60
2021/08/31 04:31:09;;;;;;;;;;;;;;;18.27;100.00;96534.94;5046117;28;19963;-61
2021/08/31 04:33:37;;;;;;;;;;;;;;;18.58;100.00;96529.28;5044041;28;19960;-60
2021/08/31 04:36:07;;;;;;;;;;;;;;;18.56;100.00;96517.97;5045264;28;20008;-63
2021/08/31 04:38:35;;;;;;;;;;;;;;;18.61;100.00;96528.06;5045774;28;19968;-62
2021/08/31 04:41:03;;;;;;;;;;;;;;;18.77;100.00;96529.66;5044918;28;22953;-61
2021/08/31 04:43:31;;;;;;;;;;;;;;;18.80;100.00;96527.41;5040463;28;19971;-59
2021/08/31 04:45:59;;;;;;;;;;;;;;;18.57;100.00;96532.13;5044235;28;19974;-60
2021/08/31 04:48:27;;;;;;;;;;;;;;;18.53;100.00;96536.22;5042576;28;19952;-58
2021/08/31 04:50:55;;;;;;;;;;;;;;;18.56;100.00;96533.16;5043622;28;19960;-62
2021/08/31 04:53:25;;;;;;;;;;;;;;;18.15;100.00;96531.97;5046707;28;19972;-61
2021/08/31 04:55:53;;;;;;;;;;;;;;;18.47;100.00;96538.63;5043109;28;19964;-62
2021/08/31 04:58:21;;;;;;;;;;;;;;;18.91;100.00;96534.06;5043946;28;19968;-62
2021/08/31 05:00:49;;;;;;;;;;;;;;;18.39;100.00;96541.44;5043852;28;19952;-62
2021/08/31 05:03:17;;;;;;;;;;;;;;;18.72;100.00;96541.75;5049300;28;20402;-62
2021/08/31 05:05:45;;;;;;;;;;;;;;;18.45;100.00;96539.84;5044866;28;20015;-62
2021/08/31 05:08:13;;;;;;;;;;;;;;;18.77;100.00;96538.50;5049310;28;19956;-61
2021/08/31 05:10:43;;;;;;;;;;;;;;;18.57;100.00;96535.63;5041833;28;19976;-62
2021/08/31 05:13:11;;;;;;;;;;;;;;;18.33;100.00;96536.84;5040612;28;19968;-62
2021/08/31 05:15:39;;;;;;;;;;;;;;;18.88;100.00;96545.16;5033407;28;19948;-62
2021/08/31 05:18:07;;;;;;;;;;;;;;;18.77;100.00;96553.69;5022917;28;19945;-62
2021/08/31 05:20:35;;;;;;;;;;;;;;;18.25;100.00;96551.16;5025518;28;19964;-62
2021/08/31 05:23:04;;;;;;;;;;;;;;;18.37;100.00;96548.78;5023629;28;19925;-62
2021/08/31 05:25:32;;;;;;;;;;;;;;;18.39;100.00;96553.97;5035754;28;19957;-61
2021/08/31 05:28:01;;;;;;;;;;;;;;;18.65;100.00;96554.19;5043153;28;19972;-62
2021/08/31 05:30:29;;;;;;;;;;;;;;;18.48;100.00;96553.66;5041692;28;20032;-62
2021/08/31 05:32:57;;;;;;;;;;;;;;;18.22;100.00;96554.22;5047518;28;20069;-61
2021/08/31 05:35:25;;;;;;;;;;;;;;;17.88;100.00;96565.53;5046865;28;19975;-62
2021/08/31 05:37:53;;;;;;;;;;;;;;;18.42;100.00;96558.91;5041648;28;20414;-62
2021/08/31 05:40:22;;;;;;;;;;;;;;;18.36;100.00;96559.69;5043700;28;19952;-62
2021/08/31 05:42:50;;;;;;;;;;;;;;;18.36;100.00;96563.16;5040901;28;19964;-62
2021/08/31 05:45:19;;;;;;;;;;;;;;;18.24;100.00;96556.69;5043284;28;21467;-60
2021/08/31 05:47:47;;;;;;;;;;;;;;;18.18;100.00;96563.63;5041012;28;19963;-62
2021/08/31 05:50:16;;;;;;;;;;;;;;;18.51;100.00;96571.09;5047361;28;19967;-62
2021/08/31 05:52:44;;;;;;;;;;;;;;;18.84;100.00;96567.94;5042612;28;20453;-62
2021/08/31 05:55:12;;;;;;;;;;;;;;;18.86;100.00;96568.59;5042264;28;19972;-62
2021/08/31 05:57:40;;;;;;;;;;;;;;;17.70;100.00;96568.59;5041704;28;19964;-62
2021/08/31 06:00:09;;;;;;;;;;;;;;;18.30;100.00;96566.59;5044641;28;19952;-62
2021/08/31 06:02:39;;;;;;;;;;;;;;;18.19;100.00;96570.59;5043075;28;20406;-62
2021/08/31 06:05:08;;;;;;;;;;;;;;;18.32;100.00;96567.25;5020417;28;20968;-62
2021/08/31 06:07:36;;;;;;;;;;;;;;;18.36;100.00;96568.50;5036359;28;19957;-62
2021/08/31 06:10:04;;;;;;;;;;;;;;;18.55;100.00;96579.56;5046263;28;20362;-63
2021/08/31 06:12:32;;;;;;;;;;;;;;;18.45;100.00;96578.06;5041352;28;19975;-62
2021/08/31 06:15:00;;;;;;;;;;;;;;;18.39;100.00;96584.16;5044036;28;19983;-63
2021/08/31 06:17:30;;;;;;;;;;;;;;;18.39;100.00;96584.16;5045993;28;20386;-62
2021/08/31 06:19:59;;;;;;;;;;;;;;;18.68;100.00;96590.38;5044374;28;20454;-62
2021/08/31 06:22:27;;;;;;;;;;;;;;;18.69;100.00;96592.88;5038089;28;20059;-62
2021/08/31 06:24:55;;;;;;;;;;;;;;;18.48;100.00;96599.03;5042599;28;19975;-62
2021/08/31 06:27:23;;;;;;;;;;;;;;;19.02;100.00;96595.00;5041206;28;19976;-63
2021/08/31 06:29:51;;;;;;;;;;;;;;;18.98;100.00;96596.41;5042575;28;19983;-63
2021/08/31 06:32:19;;;;;;;;;;;;;;;19.44;100.00;96603.91;5041709;28;19968;-62
2021/08/31 06:34:47;;;;;;;;;;;;;;;19.05;100.00;96602.63;5042305;28;20382;-63
2021/08/31 06:37:17;;;;;;;;;;;;;;;19.17;100.00;96602.94;5044141;28;19964;-62
2021/08/31 06:39:45;;;;;;;;;;;;;;;19.68;100.00;96605.31;5041428;28;19963;-63
2021/08/31 06:42:13;;;;;;;;;;;;;;;19.66;100.00;96607.38;5045458;28;20433;-62
2021/08/31 06:44:43;;;;;;;;;;;;;;;19.55;100.00;96602.56;5047823;28;19967;-63
2021/08/31 06:47:11;;;;;;;;;;;;;;;19.67;100.00;96603.66;5048258;28;20047;-63
2021/08/31 06:49:39;;;;;;;;;;;;;;;19.55;100.00;96603.38;5044410;28;19972;-59
2021/08/31 06:52:08;;;;;;;;;;;;;;;19.43;100.00;96600.41;5046525;28;20367;-63
2021/08/31 06:54:37;;;;;;;;;;;;;;;19.34;100.00;96606.09;5042208;28;20434;-63
2021/08/31 06:57:05;;;;;;;;;;;;;;;19.57;100.00;96601.31;5045449;28;19967;-63
2021/08/31 06:59:34;;;;;;;;;;;;;;;19.49;100.00;96608.69;5041104;28;19972;-62
2021/08/31 07:02:02;;;;;;;;;;;;;;;19.40;100.00;96600.81;5047436;28;19960;-63
2021/08/31 07:04:30;;;;;;;;;;;;;;;19.88;100.00;96600.88;5027802;28;19967;-62
2021/08/31 07:06:58;;;;;;;;;;;;;;;19.75;100.00;96605.34;5046909;28;19972;-63
2021/08/31 07:09:26;;;;;;;;;;;;;;;20.31;100.00;96595.25;5030943;28;19961;-63
2021/08/31 07:11:56;;;;;;;;;;;;;;;20.14;100.00;96593.97;5037694;28;19953;-62
2021/08/31 07:14:24;;;;;;;;;;;;;;;20.41;100.00;96592.19;5017486;28;19982;-63
2021/08/31 07:16:52;;;;;;;;;;;;;;;20.86;100.00;96592.47;5042183;28;20011;-63
2021/08/31 07:19:20;;;;;;;;;;;;;;;20.90;100.00;96592.91;5027276;28;19975;-63
2021/08/31 07:21:50;;;;;;;;;;;;;;;20.75;100.00;96599.28;5031225;28;19992;-63
2021/08/31 07:24:18;;;;;;;;;;;;;;;20.82;100.00;96608.16;5040309;28;20360;-63
2021/08/31 07:26:46;;;;;;;;;;;;;;;20.67;100.00;96612.88;5048368;28;19968;-63
2021/08/31 07:29:15;;;;;;;;;;;;;;;21.01;100.00;96614.53;5054924;28;19979;-62
2021/08/31 07:31:43;;;;;;;;;;;;;;;21.16;100.00;96621.53;5036446;28;19971;-63
2021/08/31 07:34:12;;;;;;;;;;;;;;;21.27;100.00;96629.81;5027163;28;19964;-63
2021/08/31 07:36:40;;;;;;;;;;;;;;;21.16;100.00;96627.72;5031427;28;19964;-62
2021/08/31 07:39:08;;;;;;;;;;;;;;;21.00;100.00;96636.22;5050399;28;19964;-62
2021/08/31 07:41:36;;;;;;;;;;;;;;;20.85;100.00;96639.06;5014536;28;20438;-62
2021/08/31 07:44:04;;;;;;;;;;;;;;;20.88;100.00;96635.16;5048557;28;19983;-63
2021/08/31 07:46:33;;;;;;;;;;;;;;;20.76;100.00;96634.94;5044189;28;19968;-63
2021/08/31 07:49:02;;;;;;;;;;;;;;;21.12;100.00;96639.09;5046865;28;19966;-64
2021/08/31 07:51:30;;;;;;;;;;;;;;;20.76;100.00;96649.16;5046057;28;20547;-64
2021/08/31 07:53:58;;;;;;;;;;;;;;;21.06;100.00;96654.97;5047407;28;20575;-62
2021/08/31 07:56:26;;;;;;;;;;;;;;;21.30;100.00;96652.69;5051157;28;19975;-64
2021/08/31 07:58:54;;;;;;;;;;;;;;;21.16;100.00;96659.91;5046471;28;19956;-62
2021/08/31 08:01:22;;;;;;;;;;;;;;;20.84;100.00;96650.81;5042534;28;20205;-62
2021/08/31 08:03:52;;;;;;;;;;;;;;;20.81;100.00;96653.91;5046286;28;20911;-63
2021/08/31 08:06:20;;;;;;;;;;;;;;;21.33;100.00;96663.00;5035877;28;20474;-63
2021/08/31 08:08:48;;;;;;;;;;;;;;;20.92;100.00;96656.00;5018238;28;20037;-63
2021/08/31 08:11:16;;;;;;;;;;;;;;;21.07;100.00;96661.16;5024056;28;19957;-63
2021/08/31 08:13:44;;;;;;;;;;;;;;;21.10;100.00;96666.13;5043530;28;19968;-63
2021/08/31 08:16:31;;;;;;;;;;;;;;;20.76;100.00;96677.84;5025697;28;19940;-62
2021/08/31 08:19:01;;;;;;;;;;;;;;;21.18;100.00;96670.44;5041025;28;19991;-61
2021/08/31 08:21:29;;;;;;;;;;;;;;;20.53;100.00;96681.69;5034012;28;19968;-62
2021/08/31 08:23:57;;;;;;;;;;;;;;;21.51;100.00;96675.84;5021497;28;19963;-62
2021/08/31 08:26:25;;;;;;;;;;;;;;;21.15;100.00;96681.59;5037845;28;19945;-61
2021/08/31 08:28:53;;;;;;;;;;;;;;;20.94;100.00;96686.09;5044018;28;19967;-62
2021/08/31 08:31:21;;;;;;;;;;;;;;;20.71;100.00;96677.59;5041328;28;19971;-62
2021/08/31 08:33:49;;;;;;;;;;;;;;;21.01;100.00;96681.56;5048891;28;19972;-62
2021/08/31 08:36:19;;;;;;;;;;;;;;;21.13;100.00;96680.94;5042047;28;19967;-63
2021/08/31 08:38:47;;;;;;;;;;;;;;;21.33;100.00;96679.09;5043697;28;19967;-61
2021/08/31 08:41:15;;;;;;;;;;;;;;;21.51;100.00;96682.03;5046853;28;19968;-62
2021/08/31 08:43:43;;;;;;;;;;;;;;;20.94;100.00;96683.41;5047891;28;19956;-63
2021/08/31 08:46:11;;;;;;;;;;;;;;;21.01;100.00;96680.75;5043716;28;19944;-63
2021/08/31 08:48:39;;;;;;;;;;;;;;;21.21;100.00;96680.75;5041301;28;19968;-62
2021/08/31 08:51:07;;;;;;;;;;;;;;;20.91;100.00;96694.53;5049778;28;19959;-62
2021/08/31 08:53:37;;;;;;;;;;;;;;;21.17;100.00;96688.41;5042813;28;19921;-63
2021/08/31 08:56:05;;;;;;;;;;;;;;;20.84;100.00;96691.84;5044914;28;19984;-63
2021/08/31 08:58:33;;;;;;;;;;;;;;;21.05;100.00;96690.84;5044692;28;19964;-63
2021/08/31 09:01:03;;;;;;;;;;;;;;;21.40;100.00;96690.69;5044320;28;19964;-63
2021/08/31 09:03:32;;;;;;;;;;;;;;;21.19;100.00;96691.69;5040153;28;20455;-64
2021/08/31 09:06:04;;;;;;;;;;;;;;;21.97;100.00;96688.34;5043751;28;19971;-63
2021/08/31 09:08:32;;;;;;;;;;;;;;;21.79;100.00;96692.50;5045235;28;19956;-63
2021/08/31 09:11:02;;;;;;;;;;;;;;;21.72;100.00;96693.56;5042797;28;19968;-64
2021/08/31 09:13:30;;;;;;;;;;;;;;;21.70;100.00;96690.25;5028212;28;20410;-60
2021/08/31 09:15:58;;;;;;;;;;;;;;;21.73;100.00;96690.66;5022036;28;20439;-63
2021/08/31 09:18:27;;;;;;;;;;;;;;;21.15;100.00;96690.44;5023866;28;19960;-63
2021/08/31 09:21:02;;;;;;;;;;;;;;;21.16;100.00;96692.09;5022077;28;19984;-63
2021/08/31 09:23:31;;;;;;;;;;;;;;;21.45;100.00;96700.81;5022460;28;19971;-63
2021/08/31 09:26:06;;;;;;;;;;;;;;;20.46;100.00;96701.41;5043432;28;19972;-62
2021/08/31 09:28:35;;;;;;;;;;;;;;;21.20;100.00;96709.44;5042782;28;20024;-63
2021/08/31 09:31:04;;;;;;;;;;;;;;;20.50;100.00;96699.97;5042989;28;20452;-63
2021/08/31 09:33:33;;;;;;;;;;;;;;;20.57;100.00;96700.84;5043994;28;19924;-64
2021/08/31 09:36:20;;;;;;;;;;;;;;;20.15;100.00;96702.72;5038317;28;19963;-63
2021/08/31 09:38:49;;;;;;;;;;;;;;;20.10;100.00;96703.34;5015481;28;19963;-63
2021/08/31 09:41:41;;;;;;;;;;;;;;;20.66;100.00;96701.53;5022497;28;19959;-64
2021/08/31 09:44:12;;;;;;;;;;;;;;;20.70;100.00;96706.25;5007395;28;20445;-62
2021/08/31 09:47:01;;;;;;;;;;;;;;;20.47;100.00;96709.25;5037318;28;19956;-62
2021/08/31 09:49:30;;;;;;;;;;;;;;;21.34;100.00;96704.94;5039599;28;19956;-63
2021/08/31 09:52:03;;;;;;;;;;;;;;;21.14;100.00;96706.75;5046163;28;19975;-62
2021/08/31 09:54:31;;;;;;;;;;;;;;;21.27;100.00;96712.97;5042863;28;20848;-64
2021/08/31 09:56:59;;;;;;;;;;;;;;;21.35;100.00;96703.91;5045969;28;19987;-63
2021/08/31 09:59:36;;;;;;;;;;;;;;;20.99;100.00;96717.66;5042601;28;19960;-63
2021/08/31 10:02:04;;;;;;;;;;;;;;;20.89;100.00;96722.59;5041714;28;20341;-63
2021/08/31 10:04:33;;;;;;;;;;;;;;;21.15;100.00;96705.72;5028465;28;19957;-63
2021/08/31 10:07:01;;;;;;;;;;;;;;;21.49;100.00;96718.97;5039129;28;19955;-63
2021/08/31 10:09:30;;;;;;;;;;;;;;;21.51;100.00;96722.28;5042795;28;19975;-63
2021/08/31 10:11:59;;;;;;;;;;;;;;;21.88;100.00;96722.63;5041909;28;21520;-63
2021/08/31 10:14:27;;;;;;;;;;;;;;;21.95;100.00;96717.25;5053077;28;19952;-64
2021/08/31 10:16:56;;;;;;;;;;;;;;;22.59;100.00;96721.81;5040308;28;20469;-63
2021/08/31 10:19:24;;;;;;;;;;;;;;;23.32;100.00;96716.00;5045188;28;19940;-63
2021/08/31 10:21:54;;;;;;;;;;;;;;;24.13;100.00;96708.88;5046980;28;19972;-62
2021/08/31 10:24:22;;;;;;;;;;;;;;;24.43;100.00;96721.63;5047613;28;19956;-63
2021/08/31 10:26:50;;;;;;;;;;;;;;;23.32;100.00;96724.09;5045808;28;19964;-63
2021/08/31 10:29:30;;;;;;;;;;;;;;;23.29;100.00;96719.13;5045058;28;19960;-61
2021/08/31 10:32:00;;;;;;;;;;;;;;;23.35;100.00;96728.22;5047308;28;19965;-63
2021/08/31 10:34:41;;;;;;;;;;;;;;;23.12;100.00;96718.84;5046015;28;20351;-62
2021/08/31 10:37:10;;;;;;;;;;;;;;;23.30;100.00;96723.50;5042491;28;19952;-64
2021/08/31 10:39:42;;;;;;;;;;;;;;;23.96;100.00;96727.50;5046383;28;19972;-63
2021/08/31 10:42:10;;;;;;;;;;;;;;;23.88;100.00;96725.09;5048666;28;19924;-63
2021/08/31 10:44:43;;;;;;;;;;;;;;;23.71;100.00;96726.69;5045517;28;19956;-61
2021/08/31 10:47:21;;;;;;;;;;;;;;;23.42;100.00;96731.69;5046597;28;20384;-64
2021/08/31 10:50:05;;;;;;;;;;;;;;;22.99;100.00;96735.09;5047556;28;19948;-62
2021/08/31 10:52:33;;;;;;;;;;;;;;;22.78;100.00;96746.13;5044781;28;19964;-62
2021/08/31 10:55:02;;;;;;;;;;;;;;;23.13;100.00;96739.34;5045241;28;19979;-63
2021/08/31 10:57:42;;;;;;;;;;;;;;;22.85;100.00;96747.75;5047936;28;19960;-62
2021/08/31 11:00:25;;;;;;;;;;;;;;;22.71;100.00;96762.28;5047712;28;20010;-63
2021/08/31 11:02:56;;;;;;;;;;;;;;;22.40;100.00;96758.50;5043071;28;20543;-63
2021/08/31 11:05:25;;;;;;;;;;;;;;;23.22;100.00;96764.13;5024082;28;19967;-64
2021/08/31 11:07:55;;;;;;;;;;;;;;;22.66;98.70;96768.31;5044941;28;20430;-62
2021/08/31 11:10:24;;;;;;;;;;;;;;;22.24;100.00;96769.72;5051059;28;19955;-63
2021/08/31 11:12:53;;;;;;;;;;;;;;;22.46;100.00;96767.56;5034445;28;19949;-63
2021/08/31 11:15:23;;;;;;;;;;;;;;;22.16;100.00;96767.22;5021612;28;19961;-63
2021/08/31 11:17:51;;;;;;;;;;;;;;;22.61;100.00;96764.59;5026088;28;19964;-63
2021/08/31 11:20:23;;;;;;;;;;;;;;;22.46;100.00;96765.69;5045667;28;20441;-63
